Time;durP1;ratioP1;P1;durP2;ratioP2;P2;SDS_P1;SDS_P2;PMS_P1;PMS_P2;Temp;Humidity;BMP_temperature;BMP_pressure;BME280_temperature;BME280_humidity;BME280_pressure;Samples;Min_cycle;Max_cycle;Signal;HPM_P1;HPM_P2
2023/04/20 00:00:10;;;;;;;;;;;;;;;;;;4919323;29;19923;-78
2023/04/20 00:02:38;;;;;;;;;;;;;;;;;;4917469;29;19915;-78
2023/04/20 00:05:03;;;;;;;;;;;;;;;;;;4917355;29;19915;-78
2023/04/20 00:07:30;;;;;;;;;;;;;;;;;;4919132;29;19919;-78
2023/04/20 00:09:55;;;;;;;;;;;;;;;;;;4920305;29;19959;-78
2023/04/20 00:12:21;;;;;;;;;;;;;;;;;;4919774;29;20338;-79
2023/04/20 00:14:46;;;;;;;;;;;;;;;;;;4919062;29;19926;-78
2023/04/20 00:17:12;;;;;;;;;;;;;;;;;;4917990;29;20446;-79
2023/04/20 00:19:40;;;;;;;;;;;;;;;;;;4917692;29;19970;-79
2023/04/20 00:22:05;;;;;;;;;;;;;;;;;;4900866;29;19915;-78
2023/04/20 00:24:31;;;;;;;;;;;;;;;;;;4917603;29;19915;-79
2023/04/20 00:26:56;;;;;;;;;;;;;;;;;;4917304;29;19916;-79
2023/04/20 00:29:21;;;;;;;;;;;;;;;;;;4916348;29;19922;-79
2023/04/20 00:31:47;;;;;;;;;;;;;;;;;;4916272;29;19919;-78
2023/04/20 00:34:13;;;;;;;;;;;;;;;;;;4900690;29;19919;-78
2023/04/20 00:36:38;;;;;;;;;;;;;;;;;;4917137;29;19915;-79
2023/04/20 00:39:04;;;;;;;;;;;;;;;;;;4916209;29;19915;-79
2023/04/20 00:41:30;;;;;;;;;;;;;;;;;;4916218;29;19922;-79
2023/04/20 00:43:55;;;;;;;;;;;;;;;;;;4884929;29;19915;-79
2023/04/20 00:46:20;;;;;;;;;;;;;;;;;;4915694;29;20343;-79
2023/04/20 00:48:46;;;;;;;;;;;;;;;;;;4917187;29;20287;-77
2023/04/20 00:51:11;;;;;;;;;;;;;;;;;;4917283;29;20022;-79
2023/04/20 00:53:37;;;;;;;;;;;;;;;;;;4915750;29;19922;-79
2023/04/20 00:56:02;;;;;;;;;;;;;;;;;;4915488;29;19922;-77
2023/04/20 00:58:27;;;;;;;;;;;;;;;;;;4916131;29;20364;-77
2023/04/20 01:00:53;;;;;;;;;;;;;;;;;;4915929;29;19915;-79
2023/04/20 01:03:18;;;;;;;;;;;;;;;;;;4917509;29;20375;-78
2023/04/20 01:05:47;;;;;;;;;;;;;;;;;;4915932;29;19922;-77
2023/04/20 01:08:12;;;;;;;;;;;;;;;;;;4915909;29;19915;-79
2023/04/20 01:10:37;;;;;;;;;;;;;;;;;;4915790;29;19915;-79
2023/04/20 01:13:05;;;;;;;;;;;;;;;;;;4916657;29;19926;-77
2023/04/20 01:15:33;;;;;;;;;;;;;;;;;;4915012;29;20383;-79
2023/04/20 01:17:58;;;;;;;;;;;;;;;;;;4915376;29;20390;-79
2023/04/20 01:20:24;;;;;;;;;;;;;;;;;;4915579;29;19915;-79
2023/04/20 01:22:49;;;;;;;;;;;;;;;;;;4915664;29;19915;-79
2023/04/20 01:25:15;;;;;;;;;;;;;;;;;;4916406;29;19923;-79
2023/04/20 01:27:40;;;;;;;;;;;;;;;;;;4916474;29;20010;-79
2023/04/20 01:30:05;;;;;;;;;;;;;;;;;;4916390;29;19915;-78
2023/04/20 01:32:31;;;;;;;;;;;;;;;;;;4916683;29;19947;-78
2023/04/20 01:34:57;;;;;;;;;;;;;;;;;;4915085;29;19919;-79
2023/04/20 01:37:23;;;;;;;;;;;;;;;;;;4915116;29;19967;-79
2023/04/20 01:39:48;;;;;;;;;;;;;;;;;;4899496;29;19915;-79
2023/04/20 01:42:14;;;;;;;;;;;;;;;;;;4915320;29;19952;-79
2023/04/20 01:44:39;;;;;;;;;;;;;;;;;;4899623;29;19922;-78
2023/04/20 01:47:04;;;;;;;;;;;;;;;;;;4899417;29;19919;-78
2023/04/20 01:49:30;;;;;;;;;;;;;;;;;;4916286;29;19911;-79
2023/04/20 01:51:56;;;;;;;;;;;;;;;;;;4899426;29;19930;-79
2023/04/20 01:54:21;;;;;;;;;;;;;;;;;;4916369;29;19915;-79
2023/04/20 01:56:47;;;;;;;;;;;;;;;;;;4898920;29;19947;-80
2023/04/20 01:59:14;;;;;;;;;;;;;;;;;;4915030;29;19915;-79
2023/04/20 02:01:39;;;;;;;;;;;;;;;;;;4915122;29;19915;-79
2023/04/20 02:04:04;;;;;;;;;;;;;;;;;;4916276;29;20408;-78
2023/04/20 02:06:30;;;;;;;;;;;;;;;;;;4914899;29;19915;-79
2023/04/20 02:08:56;;;;;;;;;;;;;;;;;;4916313;29;19915;-79
2023/04/20 02:11:21;;;;;;;;;;;;;;;;;;4916347;29;19970;-78
2023/04/20 02:13:46;;;;;;;;;;;;;;;;;;4899207;29;20371;-78
2023/04/20 02:16:13;;;;;;;;;;;;;;;;;;4915337;29;20059;-79
2023/04/20 02:18:38;;;;;;;;;;;;;;;;;;4917444;29;20395;-79
2023/04/20 02:21:03;;;;;;;;;;;;;;;;;;4916649;29;19915;-77
2023/04/20 02:23:29;;;;;;;;;;;;;;;;;;4916978;29;20017;-77
2023/04/20 02:25:54;;;;;;;;;;;;;;;;;;4916518;29;19946;-78
2023/04/20 02:28:20;;;;;;;;;;;;;;;;;;4903409;29;19915;-79
2023/04/20 02:30:45;;;;;;;;;;;;;;;;;;4919057;29;20474;-78
2023/04/20 02:33:11;;;;;;;;;;;;;;;;;;4919085;29;19922;-79
2023/04/20 02:35:37;;;;;;;;;;;;;;;;;;4918527;29;19919;-78
2023/04/20 02:38:03;;;;;;;;;;;;;;;;;;4919877;29;20276;-79
2023/04/20 02:40:28;;;;;;;;;;;;;;;;;;4903068;29;19915;-79
2023/04/20 02:42:54;;;;;;;;;;;;;;;;;;4919588;29;19919;-79
2023/04/20 02:45:19;;;;;;;;;;;;;;;;;;4920077;29;19970;-79
2023/04/20 02:47:45;;;;;;;;;;;;;;;;;;4918948;29;19919;-78
2023/04/20 02:50:12;;;;;;;;;;;;;;;;;;4918705;29;19922;-78
2023/04/20 02:52:54;;;;;;;;;;;;;;;;;;4903349;29;20380;-79
2023/04/20 02:55:20;;;;;;;;;;;;;;;;;;4903300;29;19919;-79
2023/04/20 02:57:48;;;;;;;;;;;;;;;;;;4919282;29;19923;-79
2023/04/20 03:00:14;;;;;;;;;;;;;;;;;;4919515;29;20389;-79
2023/04/20 03:02:56;;;;;;;;;;;;;;;;;;4918924;29;20450;-78
2023/04/20 03:05:22;;;;;;;;;;;;;;;;;;4918399;29;20009;-79
2023/04/20 03:07:47;;;;;;;;;;;;;;;;;;4903900;29;20023;-79
2023/04/20 03:10:13;;;;;;;;;;;;;;;;;;4919515;29;20372;-79
2023/04/20 03:13:01;;;;;;;;;;;;;;;;;;4920213;29;19975;-79
2023/04/20 03:15:30;;;;;;;;;;;;;;;;;;4919195;29;20009;-79
2023/04/20 03:18:25;;;;;;;;;;;;;;;;;;4918871;29;19919;-79
2023/04/20 03:20:51;;;;;;;;;;;;;;;;;;4918177;29;19931;-78
2023/04/20 03:23:16;;;;;;;;;;;;;;;;;;4921134;29;19919;-78
2023/04/20 03:25:43;;;;;;;;;;;;;;;;;;4922991;29;20303;-78
2023/04/20 03:28:36;;;;;;;;;;;;;;;;;;4926348;29;19915;-78
2023/04/20 03:31:01;;;;;;;;;;;;;;;;;;4910753;29;19938;-79
2023/04/20 03:33:28;;;;;;;;;;;;;;;;;;4914020;29;19915;-79
2023/04/20 03:35:54;;;;;;;;;;;;;;;;;;4927935;29;19990;-79
2023/04/20 03:38:20;;;;;;;;;;;;;;;;;;4926903;29;20002;-78
2023/04/20 03:40:45;;;;;;;;;;;;;;;;;;4928144;29;20427;-79
2023/04/20 03:43:11;;;;;;;;;;;;;;;;;;4930119;29;20074;-78
2023/04/20 03:45:36;;;;;;;;;;;;;;;;;;4925666;29;19915;-79
2023/04/20 03:48:01;;;;;;;;;;;;;;;;;;4921470;29;20006;-79
2023/04/20 03:50:27;;;;;;;;;;;;;;;;;;4902877;29;20392;-78
2023/04/20 03:52:52;;;;;;;;;;;;;;;;;;4917826;29;19978;-79
2023/04/20 03:55:18;;;;;;;;;;;;;;;;;;4901487;29;20022;-78
2023/04/20 03:57:49;;;;;;;;;;;;;;;;;;4916993;29;19965;-79
2023/04/20 04:00:15;;;;;;;;;;;;;;;;;;4901266;29;19915;-79
2023/04/20 04:02:43;;;;;;;;;;;;;;;;;;4918283;29;19915;-78
2023/04/20 04:05:08;;;;;;;;;;;;;;;;;;4916878;29;19915;-78
2023/04/20 04:07:34;;;;;;;;;;;;;;;;;;4918156;29;19919;-79
2023/04/20 04:09:59;;;;;;;;;;;;;;;;;;4917096;29;19915;-79
2023/04/20 04:12:25;;;;;;;;;;;;;;;;;;4901188;29;20070;-79
2023/04/20 04:14:50;;;;;;;;;;;;;;;;;;4917084;29;19923;-79
2023/04/20 04:17:18;;;;;;;;;;;;;;;;;;4917415;29;19921;-79
2023/04/20 04:19:44;;;;;;;;;;;;;;;;;;4901836;29;19915;-79
2023/04/20 04:22:09;;;;;;;;;;;;;;;;;;4918396;29;19919;-79
2023/04/20 04:24:41;;;;;;;;;;;;;;;;;;4917209;29;20454;-79
2023/04/20 04:27:09;;;;;;;;;;;;;;;;;;4917482;29;20375;-78
2023/04/20 04:29:40;;;;;;;;;;;;;;;;;;4917359;29;19921;-78
2023/04/20 04:32:08;;;;;;;;;;;;;;;;;;4901396;29;19945;-78
2023/04/20 04:34:36;;;;;;;;;;;;;;;;;;4916695;29;19929;-79
2023/04/20 04:37:01;;;;;;;;;;;;;;;;;;4916157;29;19911;-78
2023/04/20 04:39:38;;;;;;;;;;;;;;;;;;4916338;29;20379;-78
2023/04/20 04:42:12;;;;;;;;;;;;;;;;;;4916431;29;19915;-80
2023/04/20 04:44:40;;;;;;;;;;;;;;;;;;4917413;29;19915;-79
2023/04/20 04:47:08;;;;;;;;;;;;;;;;;;4886543;29;19977;-78
2023/04/20 04:49:34;;;;;;;;;;;;;;;;;;4900869;29;20402;-78
2023/04/20 04:52:00;;;;;;;;;;;;;;;;;;4918323;29;19915;-79
2023/04/20 04:54:25;;;;;;;;;;;;;;;;;;4916411;29;20398;-79
2023/04/20 04:56:51;;;;;;;;;;;;;;;;;;4917234;29;19966;-80
2023/04/20 04:59:16;;;;;;;;;;;;;;;;;;4917660;29;20299;-78
2023/04/20 05:01:41;;;;;;;;;;;;;;;;;;4916900;29;19919;-79
2023/04/20 05:04:07;;;;;;;;;;;;;;;;;;4917422;29;19915;-80
2023/04/20 05:06:32;;;;;;;;;;;;;;;;;;4915958;29;20363;-79
2023/04/20 05:08:57;;;;;;;;;;;;;;;;;;4917239;29;20014;-79
2023/04/20 05:11:23;;;;;;;;;;;;;;;;;;4917593;29;19934;-79
2023/04/20 05:13:48;;;;;;;;;;;;;;;;;;4917463;29;19943;-79
2023/04/20 05:16:14;;;;;;;;;;;;;;;;;;4916335;29;19915;-78
2023/04/20 05:18:39;;;;;;;;;;;;;;;;;;4917809;29;19919;-79
2023/04/20 05:21:04;;;;;;;;;;;;;;;;;;4917725;29;20379;-78
2023/04/20 05:23:30;;;;;;;;;;;;;;;;;;4916054;29;19923;-79
2023/04/20 05:25:55;;;;;;;;;;;;;;;;;;4901425;29;20275;-79
2023/04/20 05:28:21;;;;;;;;;;;;;;;;;;4916740;29;20047;-79
2023/04/20 05:30:46;;;;;;;;;;;;;;;;;;4918085;29;19938;-77
2023/04/20 05:33:12;;;;;;;;;;;;;;;;;;4917571;29;20395;-79
2023/04/20 05:35:39;;;;;;;;;;;;;;;;;;4917684;29;20002;-77
2023/04/20 05:38:05;;;;;;;;;;;;;;;;;;4916667;29;19919;-78
2023/04/20 05:40:30;;;;;;;;;;;;;;;;;;4916570;29;19970;-79
2023/04/20 05:42:55;;;;;;;;;;;;;;;;;;4917819;29;19919;-77
2023/04/20 05:45:21;;;;;;;;;;;;;;;;;;4917856;29;19965;-78
2023/04/20 05:47:46;;;;;;;;;;;;;;;;;;4901029;29;19940;-79
2023/04/20 05:50:12;;;;;;;;;;;;;;;;;;4917914;29;20331;-79
2023/04/20 05:52:37;;;;;;;;;;;;;;;;;;4917327;29;19915;-78
2023/04/20 05:55:03;;;;;;;;;;;;;;;;;;4916942;29;19926;-78
2023/04/20 05:57:29;;;;;;;;;;;;;;;;;;4918258;29;20427;-78
2023/04/20 05:59:54;;;;;;;;;;;;;;;;;;4918118;29;19915;-78
2023/04/20 06:02:20;;;;;;;;;;;;;;;;;;4920252;29;19939;-78
2023/04/20 06:04:45;;;;;;;;;;;;;;;;;;4923646;29;19915;-78
2023/04/20 06:07:11;;;;;;;;;;;;;;;;;;4922072;29;20343;-79
2023/04/20 06:09:36;;;;;;;;;;;;;;;;;;4922008;29;19915;-81
2023/04/20 06:12:02;;;;;;;;;;;;;;;;;;4908334;29;19950;-80
2023/04/20 06:14:27;;;;;;;;;;;;;;;;;;4924936;29;19919;-81
2023/04/20 06:16:53;;;;;;;;;;;;;;;;;;4922215;29;19963;-79
2023/04/20 06:19:20;;;;;;;;;;;;;;;;;;4918913;29;20453;-80
2023/04/20 06:21:45;;;;;;;;;;;;;;;;;;4920817;29;19938;-79
2023/04/20 06:24:11;;;;;;;;;;;;;;;;;;4921147;29;19922;-79
2023/04/20 06:26:36;;;;;;;;;;;;;;;;;;4919839;29;19915;-80
2023/04/20 06:29:02;;;;;;;;;;;;;;;;;;4920199;29;19922;-80
2023/04/20 06:31:27;;;;;;;;;;;;;;;;;;4920205;29;19970;-80
2023/04/20 06:33:53;;;;;;;;;;;;;;;;;;4920301;29;20014;-80
2023/04/20 06:36:18;;;;;;;;;;;;;;;;;;4925041;29;20307;-82
2023/04/20 06:38:44;;;;;;;;;;;;;;;;;;4937016;29;19975;-82
2023/04/20 06:41:09;;;;;;;;;;;;;;;;;;4937043;29;19988;-82
2023/04/20 06:43:35;;;;;;;;;;;;;;;;;;4924729;29;19957;-83
2023/04/20 06:46:02;;;;;;;;;;;;;;;;;;4927117;29;19915;-83
2023/04/20 06:48:28;;;;;;;;;;;;;;;;;;4906562;29;19915;-82
2023/04/20 06:50:54;;;;;;;;;;;;;;;;;;4937052;29;19915;-83
2023/04/20 06:53:21;;;;;;;;;;;;;;;;;;4937423;29;19915;-82
2023/04/20 06:55:50;;;;;;;;;;;;;;;;;;4933923;29;19923;-82
2023/04/20 06:58:16;;;;;;;;;;;;;;;;;;4937487;28;19911;-83
2023/04/20 07:00:43;;;;;;;;;;;;;;;;;;4906409;29;19963;-83
2023/04/20 07:03:11;;;;;;;;;;;;;;;;;;4895284;29;19915;-81
2023/04/20 07:05:37;;;;;;;;;;;;;;;;;;4925833;29;20260;-80
2023/04/20 07:10:28;;;;;;;;;;;;;;;;;;4904307;29;19924;-82
2023/04/20 07:12:54;;;;;;;;;;;;;;;;;;4903746;29;19923;-81
2023/04/20 07:15:25;;;;;;;;;;;;;;;;;;4922500;29;19920;-81
2023/04/20 07:17:51;;;;;;;;;;;;;;;;;;4913381;29;19935;-84
2023/04/20 07:20:16;;;;;;;;;;;;;;;;;;4904126;29;19931;-83
2023/04/20 07:22:42;;;;;;;;;;;;;;;;;;4902921;29;19924;-82
2023/04/20 07:25:11;;;;;;;;;;;;;;;;;;4902724;29;19967;-84
2023/04/20 07:27:37;;;;;;;;;;;;;;;;;;4887392;29;20300;-83
2023/04/20 07:30:04;;;;;;;;;;;;;;;;;;4904973;29;19936;-83
2023/04/20 07:32:30;;;;;;;;;;;;;;;;;;4888177;29;19923;-83
2023/04/20 07:34:59;;;;;;;;;;;;;;;;;;4889419;29;19904;-82
2023/04/20 07:37:25;;;;;;;;;;;;;;;;;;4903896;29;20279;-83
2023/04/20 07:39:51;;;;;;;;;;;;;;;;;;4887923;29;19947;-83
2023/04/20 07:42:17;;;;;;;;;;;;;;;;;;4894399;29;19900;-83
2023/04/20 07:44:43;;;;;;;;;;;;;;;;;;4903964;29;19908;-83
2023/04/20 07:47:08;;;;;;;;;;;;;;;;;;4902212;29;19915;-83
2023/04/20 07:49:34;;;;;;;;;;;;;;;;;;4901974;29;19940;-83
2023/04/20 07:52:00;;;;;;;;;;;;;;;;;;4902319;29;19903;-83
2023/04/20 07:54:26;;;;;;;;;;;;;;;;;;4886470;29;19927;-82
2023/04/20 07:57:02;;;;;;;;;;;;;;;;;;4902622;29;19900;-82
2023/04/20 07:59:30;;;;;;;;;;;;;;;;;;4887289;29;20312;-82
2023/04/20 08:01:55;;;;;;;;;;;;;;;;;;4885902;29;19916;-83
2023/04/20 08:04:23;;;;;;;;;;;;;;;;;;4890512;29;19951;-82
2023/04/20 08:06:49;;;;;;;;;;;;;;;;;;4880986;29;19948;-82
2023/04/20 08:09:14;;;;;;;;;;;;;;;;;;4875892;29;19920;-83
2023/04/20 08:11:41;;;;;;;;;;;;;;;;;;4880330;29;19942;-83
2023/04/20 08:14:07;;;;;;;;;;;;;;;;;;4895524;29;19920;-82
2023/04/20 08:16:35;;;;;;;;;;;;;;;;;;4872059;29;19923;-82
2023/04/20 08:19:08;;;;;;;;;;;;;;;;;;4896325;29;20391;-80
2023/04/20 08:21:35;;;;;;;;;;;;;;;;;;4883327;29;19923;-81
2023/04/20 08:24:00;;;;;;;;;;;;;;;;;;4850736;29;20304;-81
2023/04/20 08:26:26;;;;;;;;;;;;;;;;;;4878378;29;19915;-80
2023/04/20 08:28:52;;;;;;;;;;;;;;;;;;4873811;29;20436;-81
2023/04/20 08:31:17;;;;;;;;;;;;;;;;;;4864011;29;20333;-81
2023/04/20 08:33:42;;;;;;;;;;;;;;;;;;4861705;29;19927;-81
2023/04/20 08:36:08;;;;;;;;;;;;;;;;;;4874737;29;19951;-79
2023/04/20 08:38:33;;;;;;;;;;;;;;;;;;4879929;29;20375;-78
2023/04/20 08:40:58;;;;;;;;;;;;;;;;;;4857039;29;20415;-80
2023/04/20 08:43:24;;;;;;;;;;;;;;;;;;4876373;29;19932;-80
2023/04/20 08:45:50;;;;;;;;;;;;;;;;;;4865276;29;20285;-80
2023/04/20 08:48:16;;;;;;;;;;;;;;;;;;4877420;29;19916;-80
2023/04/20 08:50:41;;;;;;;;;;;;;;;;;;4878277;29;19923;-81
2023/04/20 08:53:08;;;;;;;;;;;;;;;;;;4850725;29;19923;-80
2023/04/20 08:55:34;;;;;;;;;;;;;;;;;;4875667;29;19972;-80
2023/04/20 08:57:59;;;;;;;;;;;;;;;;;;4893147;29;19916;-80
2023/04/20 09:00:25;;;;;;;;;;;;;;;;;;4861338;29;20285;-80
2023/04/20 09:02:50;;;;;;;;;;;;;;;;;;4856285;29;19958;-81
2023/04/20 09:05:15;;;;;;;;;;;;;;;;;;4854941;29;20437;-81
2023/04/20 09:07:41;;;;;;;;;;;;;;;;;;4866439;29;19932;-81
2023/04/20 09:10:06;;;;;;;;;;;;;;;;;;4877302;29;19920;-80
2023/04/20 09:12:32;;;;;;;;;;;;;;;;;;4880578;29;20022;-82
2023/04/20 09:14:57;;;;;;;;;;;;;;;;;;4872553;29;19971;-83
2023/04/20 09:17:35;;;;;;;;;;;;;;;;;;4872946;29;20199;-82
2023/04/20 09:20:01;;;;;;;;;;;;;;;;;;4875473;29;19916;-82
2023/04/20 09:22:27;;;;;;;;;;;;;;;;;;4893337;29;19975;-82
2023/04/20 09:24:52;;;;;;;;;;;;;;;;;;4862936;29;19980;-82
2023/04/20 09:27:17;;;;;;;;;;;;;;;;;;4886427;29;19923;-82
2023/04/20 09:29:43;;;;;;;;;;;;;;;;;;4885173;29;19922;-82
2023/04/20 09:32:08;;;;;;;;;;;;;;;;;;4878659;29;19917;-82
2023/04/20 09:34:34;;;;;;;;;;;;;;;;;;4871013;29;19920;-82
2023/04/20 09:36:59;;;;;;;;;;;;;;;;;;4859676;29;20316;-83
2023/04/20 09:39:25;;;;;;;;;;;;;;;;;;4857640;29;19917;-81
2023/04/20 09:41:53;;;;;;;;;;;;;;;;;;4877444;29;20445;-83
2023/04/20 09:44:20;;;;;;;;;;;;;;;;;;4879023;29;19920;-81
2023/04/20 09:46:45;;;;;;;;;;;;;;;;;;4869013;29;19922;-83
2023/04/20 09:49:14;;;;;;;;;;;;;;;;;;4900305;29;19916;-82
2023/04/20 09:51:45;;;;;;;;;;;;;;;;;;4900815;29;19916;-83
2023/04/20 09:54:11;;;;;;;;;;;;;;;;;;4901906;29;20014;-84
2023/04/20 09:56:37;;;;;;;;;;;;;;;;;;4901464;29;20316;-82
2023/04/20 09:59:09;;;;;;;;;;;;;;;;;;4883009;29;19959;-83
2023/04/20 10:01:35;;;;;;;;;;;;;;;;;;4889401;29;19923;-82
2023/04/20 10:04:03;;;;;;;;;;;;;;;;;;4881371;29;20363;-83
2023/04/20 10:06:29;;;;;;;;;;;;;;;;;;4899109;29;20392;-83
2023/04/20 10:08:55;;;;;;;;;;;;;;;;;;4871213;29;19904;-83
2023/04/20 10:11:20;;;;;;;;;;;;;;;;;;4890572;29;19916;-83
2023/04/20 10:13:49;;;;;;;;;;;;;;;;;;4867002;29;19927;-83
2023/04/20 10:16:17;;;;;;;;;;;;;;;;;;4865984;29;19997;-81
2023/04/20 10:18:43;;;;;;;;;;;;;;;;;;4884816;29;20353;-82
2023/04/20 10:21:09;;;;;;;;;;;;;;;;;;4874112;29;19967;-82
2023/04/20 10:23:35;;;;;;;;;;;;;;;;;;4869150;29;19928;-83
2023/04/20 10:26:01;;;;;;;;;;;;;;;;;;4897208;29;19971;-81
2023/04/20 10:28:26;;;;;;;;;;;;;;;;;;4866758;29;19927;-80
2023/04/20 10:30:52;;;;;;;;;;;;;;;;;;4888492;29;19919;-79
2023/04/20 10:33:17;;;;;;;;;;;;;;;;;;4888177;29;19979;-79
2023/04/20 10:35:43;;;;;;;;;;;;;;;;;;4879605;29;19935;-79
2023/04/20 10:38:11;;;;;;;;;;;;;;;;;;4877015;29;19916;-79
2023/04/20 10:40:37;;;;;;;;;;;;;;;;;;4869657;29;19972;-79
2023/04/20 10:43:02;;;;;;;;;;;;;;;;;;4860836;29;19959;-79
2023/04/20 10:45:29;;;;;;;;;;;;;;;;;;4859824;29;19972;-78
2023/04/20 10:47:54;;;;;;;;;;;;;;;;;;4864628;29;19916;-79
2023/04/20 10:50:22;;;;;;;;;;;;;;;;;;4878208;29;19920;-78
2023/04/20 10:52:48;;;;;;;;;;;;;;;;;;4863692;29;20040;-79
2023/04/20 10:55:13;;;;;;;;;;;;;;;;;;4872321;29;19966;-79
2023/04/20 10:57:39;;;;;;;;;;;;;;;;;;4863384;29;19955;-79
2023/04/20 11:00:05;;;;;;;;;;;;;;;;;;4866097;29;21472;-77
2023/04/20 11:02:30;;;;;;;;;;;;;;;;;;4859505;29;20503;-79
2023/04/20 11:04:59;;;;;;;;;;;;;;;;;;4863118;29;19973;-76
2023/04/20 11:07:25;;;;;;;;;;;;;;;;;;4859632;29;19922;-79
2023/04/20 11:09:50;;;;;;;;;;;;;;;;;;4849559;29;19920;-78
2023/04/20 11:12:16;;;;;;;;;;;;;;;;;;4850424;29;20304;-80
2023/04/20 11:14:42;;;;;;;;;;;;;;;;;;4873060;29;20397;-79
2023/04/20 11:17:07;;;;;;;;;;;;;;;;;;4856626;29;19922;-79
2023/04/20 11:19:32;;;;;;;;;;;;;;;;;;4879891;29;19948;-79
2023/04/20 11:21:58;;;;;;;;;;;;;;;;;;4865676;29;19916;-78
2023/04/20 11:24:23;;;;;;;;;;;;;;;;;;4879865;29;19915;-79
2023/04/20 11:26:49;;;;;;;;;;;;;;;;;;4871575;29;19948;-78
2023/04/20 11:29:14;;;;;;;;;;;;;;;;;;4872670;29;19919;-78
2023/04/20 11:31:40;;;;;;;;;;;;;;;;;;4865100;29;19916;-79
2023/04/20 11:34:07;;;;;;;;;;;;;;;;;;4877255;29;19924;-80
2023/04/20 11:36:33;;;;;;;;;;;;;;;;;;4868297;29;19920;-78
2023/04/20 11:38:58;;;;;;;;;;;;;;;;;;4870963;29;19917;-77
2023/04/20 11:41:24;;;;;;;;;;;;;;;;;;4875410;29;19922;-79
2023/04/20 11:43:50;;;;;;;;;;;;;;;;;;4866135;29;20388;-82
2023/04/20 11:46:15;;;;;;;;;;;;;;;;;;4875589;29;19916;-79
2023/04/20 11:48:41;;;;;;;;;;;;;;;;;;4853012;29;20299;-78
2023/04/20 11:51:06;;;;;;;;;;;;;;;;;;4869687;29;19927;-77
2023/04/20 11:53:31;;;;;;;;;;;;;;;;;;4875586;29;19916;-80
2023/04/20 11:55:57;;;;;;;;;;;;;;;;;;4872617;29;19920;-80
2023/04/20 11:58:22;;;;;;;;;;;;;;;;;;4878842;29;20376;-79
2023/04/20 12:00:48;;;;;;;;;;;;;;;;;;4871374;29;19923;-80
2023/04/20 12:03:13;;;;;;;;;;;;;;;;;;4882480;29;19922;-80
2023/04/20 12:05:39;;;;;;;;;;;;;;;;;;4881577;29;20384;-80
2023/04/20 12:08:04;;;;;;;;;;;;;;;;;;4868058;29;19916;-80
2023/04/20 12:10:30;;;;;;;;;;;;;;;;;;4863707;29;19920;-80
2023/04/20 12:12:56;;;;;;;;;;;;;;;;;;4878775;29;20396;-80
2023/04/20 12:15:21;;;;;;;;;;;;;;;;;;4876483;29;19919;-80
2023/04/20 12:20:34;;;;;;;;;;;;;;;;;;4911319;29;19927;-89
2023/04/20 12:23:01;;;;;;;;;;;;;;;;;;4887207;29;19915;-90
2023/04/20 12:25:26;;;;;;;;;;;;;;;;;;4903790;29;20395;-88
2023/04/20 12:27:51;;;;;;;;;;;;;;;;;;4906290;29;19916;-89
2023/04/20 12:30:17;;;;;;;;;;;;;;;;;;4903800;29;19927;-91
2023/04/20 12:32:42;;;;;;;;;;;;;;;;;;4871713;29;20422;-90
2023/04/20 12:35:08;;;;;;;;;;;;;;;;;;4879881;29;20012;-91
2023/04/20 12:37:34;;;;;;;;;;;;;;;;;;4920821;29;19916;-90
2023/04/20 12:39:59;;;;;;;;;;;;;;;;;;4895939;29;19916;-86
2023/04/20 12:42:25;;;;;;;;;;;;;;;;;;4899044;29;19922;-85
2023/04/20 12:44:50;;;;;;;;;;;;;;;;;;4909386;29;19921;-88
2023/04/20 12:47:16;;;;;;;;;;;;;;;;;;4912647;29;19959;-87
2023/04/20 12:49:41;;;;;;;;;;;;;;;;;;4873674;29;19926;-88
2023/04/20 12:52:09;;;;;;;;;;;;;;;;;;4917716;29;19919;-90
2023/04/20 12:54:35;;;;;;;;;;;;;;;;;;4884262;29;19951;-90
2023/04/20 12:57:03;;;;;;;;;;;;;;;;;;4875554;29;19929;-90
2023/04/20 12:59:29;;;;;;;;;;;;;;;;;;4895334;29;19920;-87
2023/04/20 13:01:54;;;;;;;;;;;;;;;;;;4884315;29;20290;-90
2023/04/20 13:04:20;;;;;;;;;;;;;;;;;;4880517;29;19915;-88
2023/04/20 13:06:45;;;;;;;;;;;;;;;;;;4865716;29;20296;-88
2023/04/20 13:09:10;;;;;;;;;;;;;;;;;;4895209;29;19921;-89
2023/04/20 13:11:36;;;;;;;;;;;;;;;;;;4908508;29;19966;-91
2023/04/20 13:14:01;;;;;;;;;;;;;;;;;;4857747;29;20075;-90
2023/04/20 13:16:28;;;;;;;;;;;;;;;;;;4898950;29;19923;-91
2023/04/20 13:18:53;;;;;;;;;;;;;;;;;;4868686;29;20059;-90
2023/04/20 13:21:19;;;;;;;;;;;;;;;;;;4888019;29;19967;-90
2023/04/20 13:23:44;;;;;;;;;;;;;;;;;;4885104;29;19915;-91
2023/04/20 13:26:10;;;;;;;;;;;;;;;;;;4880969;29;19916;-92
2023/04/20 13:28:36;;;;;;;;;;;;;;;;;;4886969;29;20096;-91
2023/04/20 13:31:01;;;;;;;;;;;;;;;;;;4892217;29;20443;-90
2023/04/20 13:33:27;;;;;;;;;;;;;;;;;;4883999;29;19915;-89
2023/04/20 13:35:52;;;;;;;;;;;;;;;;;;4893534;29;19989;-90
2023/04/20 13:38:18;;;;;;;;;;;;;;;;;;4882164;29;20435;-90
2023/04/20 13:40:43;;;;;;;;;;;;;;;;;;4875590;29;19920;-89
2023/04/20 13:43:09;;;;;;;;;;;;;;;;;;4877909;29;20375;-90
2023/04/20 13:45:35;;;;;;;;;;;;;;;;;;4887276;29;19920;-91
2023/04/20 13:48:00;;;;;;;;;;;;;;;;;;4866172;29;19922;-89
2023/04/20 13:50:26;;;;;;;;;;;;;;;;;;4899798;29;20311;-90
2023/04/20 13:52:51;;;;;;;;;;;;;;;;;;4902973;29;19920;-90
2023/04/20 13:55:19;;;;;;;;;;;;;;;;;;4919159;29;19915;-89
2023/04/20 13:57:44;;;;;;;;;;;;;;;;;;4890262;29;19912;-88
2023/04/20 14:00:10;;;;;;;;;;;;;;;;;;4905962;29;19908;-84
2023/04/20 14:02:35;;;;;;;;;;;;;;;;;;4911876;29;19920;-86
2023/04/20 14:05:02;;;;;;;;;;;;;;;;;;4885405;29;19919;-84
2023/04/20 14:07:31;;;;;;;;;;;;;;;;;;4884533;29;19953;-92
2023/04/20 14:09:58;;;;;;;;;;;;;;;;;;4891906;29;19916;-89
2023/04/20 14:12:25;;;;;;;;;;;;;;;;;;4874257;29;19994;-91
2023/04/20 14:14:50;;;;;;;;;;;;;;;;;;4918564;29;19970;-88
2023/04/20 14:17:16;;;;;;;;;;;;;;;;;;4889307;29;19916;-88
2023/04/20 14:19:41;;;;;;;;;;;;;;;;;;4883300;29;20304;-87
2023/04/20 14:22:07;;;;;;;;;;;;;;;;;;4884267;29;19915;-90
2023/04/20 14:24:32;;;;;;;;;;;;;;;;;;4895803;29;19934;-85
2023/04/20 14:26:58;;;;;;;;;;;;;;;;;;4889839;29;19994;-80
2023/04/20 14:29:24;;;;;;;;;;;;;;;;;;4891187;29;19915;-81
2023/04/20 14:31:49;;;;;;;;;;;;;;;;;;4896112;29;19970;-81
2023/04/20 14:34:14;;;;;;;;;;;;;;;;;;4884834;29;19919;-82
2023/04/20 14:36:40;;;;;;;;;;;;;;;;;;4883162;29;19941;-80
2023/04/20 14:39:08;;;;;;;;;;;;;;;;;;4860567;29;19916;-80
2023/04/20 14:41:33;;;;;;;;;;;;;;;;;;4886654;29;19923;-80
2023/04/20 14:43:58;;;;;;;;;;;;;;;;;;4893621;29;19920;-80
2023/04/20 14:46:24;;;;;;;;;;;;;;;;;;4907080;29;20517;-80
2023/04/20 14:48:50;;;;;;;;;;;;;;;;;;4892173;29;19916;-79
2023/04/20 14:51:19;;;;;;;;;;;;;;;;;;4892811;29;20064;-80
2023/04/20 14:53:44;;;;;;;;;;;;;;;;;;4898593;29;19926;-80
2023/04/20 14:56:10;;;;;;;;;;;;;;;;;;4895823;29;20303;-80
2023/04/20 14:58:36;;;;;;;;;;;;;;;;;;4892694;29;19971;-80
2023/04/20 15:01:01;;;;;;;;;;;;;;;;;;4891247;29;19911;-78
2023/04/20 15:03:27;;;;;;;;;;;;;;;;;;4885777;29;20008;-78
2023/04/20 15:05:52;;;;;;;;;;;;;;;;;;4895905;29;19949;-80
2023/04/20 15:08:18;;;;;;;;;;;;;;;;;;4883703;29;19916;-79
2023/04/20 15:10:44;;;;;;;;;;;;;;;;;;4894860;29;19920;-87
2023/04/20 15:13:10;;;;;;;;;;;;;;;;;;4895380;29;19923;-82
2023/04/20 15:15:35;;;;;;;;;;;;;;;;;;4882337;29;19920;-83
2023/04/20 15:18:00;;;;;;;;;;;;;;;;;;4896150;29;19923;-81
2023/04/20 15:20:26;;;;;;;;;;;;;;;;;;4886088;29;20499;-81
2023/04/20 15:22:51;;;;;;;;;;;;;;;;;;4890968;29;19916;-80
2023/04/20 15:25:17;;;;;;;;;;;;;;;;;;4892331;29;20284;-81
2023/04/20 15:27:42;;;;;;;;;;;;;;;;;;4884488;29;20315;-79
2023/04/20 15:30:07;;;;;;;;;;;;;;;;;;4895802;29;19926;-79
2023/04/20 15:32:33;;;;;;;;;;;;;;;;;;4888230;29;19916;-89
2023/04/20 15:34:59;;;;;;;;;;;;;;;;;;4890932;29;20364;-90
2023/04/20 15:37:27;;;;;;;;;;;;;;;;;;4894600;29;20399;-87
2023/04/20 15:39:54;;;;;;;;;;;;;;;;;;4930763;29;19972;-87
2023/04/20 15:42:20;;;;;;;;;;;;;;;;;;4892501;29;19920;-87
2023/04/20 15:44:45;;;;;;;;;;;;;;;;;;4865340;29;19915;-86
2023/04/20 15:47:11;;;;;;;;;;;;;;;;;;4896782;29;19920;-87
2023/04/20 15:49:39;;;;;;;;;;;;;;;;;;4895999;29;19915;-83
2023/04/20 15:52:14;;;;;;;;;;;;;;;;;;4914184;29;19943;-87
2023/04/20 15:54:39;;;;;;;;;;;;;;;;;;4910110;29;20371;-85
2023/04/20 15:57:08;;;;;;;;;;;;;;;;;;4902693;29;19923;-87
2023/04/20 15:59:41;;;;;;;;;;;;;;;;;;4881306;29;19983;-85
2023/04/20 16:02:10;;;;;;;;;;;;;;;;;;4885955;29;19915;-88
2023/04/20 16:04:36;;;;;;;;;;;;;;;;;;4908796;29;19958;-86
2023/04/20 16:07:02;;;;;;;;;;;;;;;;;;4879054;29;19927;-86
2023/04/20 16:09:28;;;;;;;;;;;;;;;;;;4865309;29;19916;-86
2023/04/20 16:11:53;;;;;;;;;;;;;;;;;;4895146;29;19916;-86
2023/04/20 16:14:21;;;;;;;;;;;;;;;;;;4922054;29;19927;-84
2023/04/20 16:16:47;;;;;;;;;;;;;;;;;;4879027;29;19971;-86
2023/04/20 16:19:20;;;;;;;;;;;;;;;;;;4893557;29;19919;-85
2023/04/20 16:21:46;;;;;;;;;;;;;;;;;;4888533;29;20413;-85
2023/04/20 16:24:11;;;;;;;;;;;;;;;;;;4886361;29;20276;-86
2023/04/20 16:26:37;;;;;;;;;;;;;;;;;;4905603;29;19916;-84
2023/04/20 16:29:06;;;;;;;;;;;;;;;;;;4892133;29;19915;-83
2023/04/20 16:31:35;;;;;;;;;;;;;;;;;;4932049;29;19975;-83
2023/04/20 16:34:01;;;;;;;;;;;;;;;;;;4880951;29;19939;-82
2023/04/20 16:36:27;;;;;;;;;;;;;;;;;;4879491;29;19916;-86
2023/04/20 16:38:56;;;;;;;;;;;;;;;;;;4863182;29;19916;-85
2023/04/20 16:41:25;;;;;;;;;;;;;;;;;;4890952;29;19947;-86
2023/04/20 16:43:56;;;;;;;;;;;;;;;;;;4898415;29;19916;-86